Time;durP1;ratioP1;P1;durP2;ratioP2;P2;SDS_P1;SDS_P2;PMS_P1;PMS_P2;Temp;Humidity;BMP_temperature;BMP_pressure;BME280_temperature;BME280_humidity;BME280_pressure;Samples;Min_cycle;Max_cycle;Signal;HPM_P1;HPM_P2
2022/01/23 00:02:20;;;;;;;0.20;0.10;;;;;;;6.08;100.00;102049.66;5013084;28;20491;-53
2022/01/23 00:04:46;;;;;;;0.30;0.20;;;;;;;6.11;100.00;102056.72;5013706;28;20526;-54
2022/01/23 00:07:15;;;;;;;0.20;0.10;;;;;;;6.23;100.00;102055.22;5015837;28;20456;-54
2022/01/23 00:09:42;;;;;;;0.20;0.20;;;;;;;6.22;100.00;102042.88;5004144;28;20600;-54
2022/01/23 00:12:14;;;;;;;0.20;0.20;;;;;;;6.27;100.00;102039.41;5008575;28;20502;-54
2022/01/23 00:17:33;;;;;;;0.20;0.10;;;;;;;6.17;100.00;102049.84;5011571;28;20449;-54
2022/01/23 00:20:06;;;;;;;0.20;0.20;;;;;;;6.11;100.00;102047.06;5012407;28;20552;-54
2022/01/23 00:22:50;;;;;;;0.20;0.10;;;;;;;6.13;100.00;102041.81;5000585;28;20452;-54
2022/01/23 00:30:50;;;;;;;0.20;0.10;;;;;;;6.18;100.00;102037.53;5011609;28;20876;-54
2022/01/23 00:33:17;;;;;;;0.20;0.10;;;;;;;6.18;100.00;102033.13;5014965;28;20476;-54
2022/01/23 00:35:46;;;;;;;0.20;0.20;;;;;;;6.12;100.00;102034.75;5015268;28;20507;-54
2022/01/23 00:38:14;;;;;;;0.20;0.20;;;;;;;6.15;100.00;102029.53;5014189;28;20958;-54
2022/01/23 00:40:42;;;;;;;0.20;0.10;;;;;;;6.09;100.00;102029.44;5010841;28;20453;-55
2022/01/23 00:43:30;;;;;;;0.20;0.10;;;;;;;6.06;100.00;102024.09;5009025;28;20534;-54
2022/01/23 00:51:37;;;;;;;0.20;0.10;;;;;;;6.15;100.00;102029.53;5002647;28;20460;-54
2022/01/23 00:54:09;;;;;;;0.20;0.10;;;;;;;6.09;100.00;102024.16;5014724;28;20464;-54
2022/01/23 00:56:37;;;;;;;0.20;0.20;;;;;;;6.13;100.00;102029.50;5014897;28;20456;-54
2022/01/23 00:59:04;;;;;;;0.20;0.20;;;;;;;6.10;100.00;102033.84;5014228;28;20480;-54
2022/01/23 01:01:31;;;;;;;0.20;0.10;;;;;;;6.02;100.00;102040.72;5000988;28;20464;-54
2022/01/23 01:03:58;;;;;;;0.20;0.13;;;;;;;6.03;100.00;102053.06;5014557;28;20974;-54
2022/01/23 01:06:25;;;;;;;0.20;0.20;;;;;;;6.01;100.00;102039.84;5002052;28;20880;-55
2022/01/23 01:08:55;;;;;;;0.20;0.10;;;;;;;6.14;100.00;102041.84;5008240;28;20446;-54
2022/01/23 01:14:25;;;;;;;0.30;0.20;;;;;;;6.10;100.00;102036.47;5012847;28;20990;-54
2022/01/23 01:17:10;;;;;;;0.20;0.20;;;;;;;6.13;100.00;102031.25;5005425;28;20445;-54
2022/01/23 01:34:03;;;;;;;0.20;0.10;;;;;;;6.03;100.00;102039.84;5013874;28;20937;-53
2022/01/23 01:36:30;;;;;;;0.20;0.10;;;;;;;6.06;100.00;102037.31;4990369;28;20810;-54
2022/01/23 01:38:57;;;;;;;0.20;0.10;;;;;;;5.99;100.00;102031.00;4999716;28;20579;-54
2022/01/23 01:41:24;;;;;;;0.20;0.10;;;;;;;6.04;100.00;102023.19;5009101;28;20550;-54
2022/01/23 01:43:52;;;;;;;0.20;0.10;;;;;;;6.06;100.00;102024.09;5013733;28;21027;-54
2022/01/23 01:46:20;;;;;;;0.30;0.20;;;;;;;5.99;100.00;102023.09;5013750;28;20793;-53
2022/01/23 01:48:46;;;;;;;0.40;0.40;;;;;;;5.92;100.00;102026.50;5013804;28;20448;-53
2022/01/23 01:51:17;;;;;;;0.20;0.10;;;;;;;5.86;100.00;102027.22;5010808;28;20580;-54
2022/01/23 01:53:49;;;;;;;0.20;0.10;;;;;;;5.89;100.00;102021.09;4988323;28;20535;-54
2022/01/23 01:56:16;;;;;;;0.20;0.10;;;;;;;5.92;100.00;102024.75;5010952;28;20511;-54
2022/01/23 02:14:38;;;;;;;0.20;0.17;;;;;;;6.06;100.00;102009.16;5009592;28;20465;-54
2022/01/23 02:17:26;;;;;;;0.20;0.20;;;;;;;5.94;100.00;102022.13;5005951;28;20499;-54
2022/01/23 02:23:09;;;;;;;0.20;0.10;;;;;;;5.89;100.00;102011.47;5001184;28;20456;-54
2022/01/23 02:53:32;;;;;;;0.20;0.10;;;;;;;6.36;100.00;102034.28;5012486;28;20543;-54
2022/01/23 02:56:01;;;;;;;0.20;0.10;;;;;;;6.17;100.00;102033.09;4998068;28;21010;-54
2022/01/23 02:58:46;;;;;;;0.20;0.10;;;;;;;6.24;100.00;102027.94;5012132;28;20452;-54
2022/01/23 03:01:19;;;;;;;0.20;0.20;;;;;;;6.35;100.00;102037.81;5011116;28;20945;-54
2022/01/23 03:03:49;;;;;;;0.20;0.10;;;;;;;6.34;100.00;102041.31;5012625;28;20465;-54
2022/01/23 03:33:31;;;;;;;0.30;0.20;;;;;;;6.14;100.00;102048.88;5012142;28;20484;-54
2022/01/23 03:35:58;;;;;;;0.20;0.10;;;;;;;6.13;100.00;102047.97;5005297;28;20456;-55
2022/01/23 03:38:25;;;;;;;0.20;0.10;;;;;;;6.06;100.00;102046.09;5010963;28;20479;-55
2022/01/23 03:40:52;;;;;;;0.20;0.10;;;;;;;5.99;100.00;102036.28;5006071;28;20452;-55
2022/01/23 03:43:26;;;;;;;0.20;0.10;;;;;;;6.23;100.00;102028.81;5009113;28;20481;-55
2022/01/23 03:51:16;;;;;;;0.20;0.20;;;;;;;6.28;100.00;102025.34;5008399;28;20570;-55
2022/01/23 03:53:42;;;;;;;0.20;0.10;;;;;;;6.20;100.00;102027.88;5011895;28;20472;-55
2022/01/23 03:56:09;;;;;;;0.30;0.30;;;;;;;6.04;100.00;102020.56;5011828;28;20956;-55
2022/01/23 03:58:36;;;;;;;0.20;0.17;;;;;;;6.02;100.00;102016.97;5011983;28;20456;-55
2022/01/23 04:01:02;;;;;;;0.30;0.20;;;;;;;6.01;100.00;102016.06;5010902;28;20452;-55
2022/01/23 04:03:31;;;;;;;0.27;0.13;;;;;;;5.95;100.00;102021.25;4994182;28;21005;-53
2022/01/23 04:05:58;;;;;;;0.20;0.10;;;;;;;5.89;100.00;102019.38;5012001;28;20522;-53
2022/01/23 04:08:25;;;;;;;0.20;0.10;;;;;;;6.29;100.00;102022.72;5004553;28;20512;-53
2022/01/23 04:10:52;;;;;;;0.30;0.20;;;;;;;6.13;100.00;102024.22;5006936;28;20503;-53
2022/01/23 04:13:36;;;;;;;0.20;0.10;;;;;;;6.21;100.00;102025.25;5011854;28;20904;-53
2022/01/23 04:46:15;;;;;;;0.20;0.10;;;;;;;6.56;100.00;102059.28;5004981;28;20460;-52
2022/01/23 04:59:45;;;;;;;0.20;0.20;;;;;;;6.38;100.00;102058.97;5014927;28;20506;-52
2022/01/23 05:04:48;;;;;;;0.20;0.10;;;;;;;6.48;100.00;102056.53;5009810;28;20481;-52
2022/01/23 05:07:17;;;;;;;0.30;0.20;;;;;;;6.34;100.00;102059.78;5008200;28;20456;-52
2022/01/23 05:09:43;;;;;;;0.20;0.10;;;;;;;6.48;100.00;102063.56;4996200;28;20878;-52
2022/01/23 05:12:12;;;;;;;0.20;0.20;;;;;;;6.44;100.00;102064.34;5014764;28;20508;-52
2022/01/23 05:14:43;;;;;;;0.57;0.57;;;;;;;6.33;100.00;102044.81;5002460;28;20564;-52
2022/01/23 05:17:13;;;;;;;0.30;0.20;;;;;;;6.42;100.00;102050.22;5008377;28;20889;-52
2022/01/23 05:19:40;;;;;;;0.20;0.20;;;;;;;6.48;100.00;102047.72;4989939;28;20506;-52
2022/01/23 05:25:11;;;;;;;0.20;0.20;;;;;;;6.41;100.00;102037.88;5009310;28;20497;-52
2022/01/23 05:27:38;;;;;;;1.27;0.50;;;;;;;6.43;100.00;102047.63;5013561;28;20873;-52
2022/01/23 05:30:05;;;;;;;0.20;0.10;;;;;;;6.60;100.00;102050.56;5014500;28;20457;-52
2022/01/23 05:32:36;;;;;;;0.20;0.10;;;;;;;6.72;100.00;102052.50;5014156;28;20483;-52
2022/01/23 05:35:05;;;;;;;0.20;0.10;;;;;;;6.63;100.00;102053.25;5004044;28;20639;-53
2022/01/23 05:37:32;;;;;;;0.30;0.10;;;;;;;6.35;100.00;102058.94;5014248;28;20519;-52
2022/01/23 05:40:00;;;;;;;0.20;0.10;;;;;;;6.80;100.00;102064.94;5013393;28;20452;-52
2022/01/23 05:42:26;;;;;;;0.30;0.20;;;;;;;6.52;100.00;102060.97;5014465;28;20463;-52
2022/01/23 05:44:53;;;;;;;0.20;0.20;;;;;;;6.41;100.00;102061.66;5006508;28;20505;-52
2022/01/23 05:47:20;;;;;;;0.20;0.20;;;;;;;6.44;100.00;102070.56;5014342;28;20456;-52
2022/01/23 05:49:46;;;;;;;1.27;1.27;;;;;;;6.35;100.00;102066.84;5013845;28;20829;-52
2022/01/23 05:52:13;;;;;;;0.20;0.20;;;;;;;6.16;100.00;102071.78;5013973;28;20484;-52
2022/01/23 05:54:40;;;;;;;0.20;0.13;;;;;;;6.10;100.00;102082.25;5009288;28;20508;-52
2022/01/23 05:57:06;;;;;;;0.20;0.10;;;;;;;6.09;100.00;102087.50;5014000;28;20453;-55
2022/01/23 05:59:33;;;;;;;0.20;0.10;;;;;;;6.39;100.00;102080.13;5002934;28;20966;-55
2022/01/23 06:02:00;;;;;;;0.20;0.20;;;;;;;6.16;100.00;102077.06;5014024;28;20456;-52
2022/01/23 06:04:27;;;;;;;0.20;0.10;;;;;;;6.16;100.00;102079.69;5004383;28;21046;-52
2022/01/23 06:06:56;;;;;;;1.03;0.80;;;;;;;6.32;100.00;102070.34;5014023;28;20459;-52
2022/01/23 06:09:23;;;;;;;0.30;0.20;;;;;;;6.26;100.00;102070.22;5006366;28;20453;-52
2022/01/23 06:11:50;;;;;;;0.50;0.50;;;;;;;6.21;100.00;102063.97;5013504;28;20493;-52
2022/01/23 06:14:18;;;;;;;0.40;0.40;;;;;;;6.34;100.00;102065.06;5009968;28;20474;-52
2022/01/23 06:16:46;;;;;;;0.50;0.50;;;;;;;6.26;100.00;102077.25;5004165;28;20452;-52
2022/01/23 06:19:12;;;;;;;0.20;0.10;;;;;;;6.33;100.00;102072.13;5005283;28;20457;-52
2022/01/23 06:21:39;;;;;;;0.20;0.10;;;;;;;6.26;100.00;102077.25;5006578;28;20511;-52
2022/01/23 06:24:09;;;;;;;0.20;0.20;;;;;;;6.15;100.00;102084.97;5010328;28;20475;-51
2022/01/23 06:26:41;;;;;;;0.20;0.20;;;;;;;6.04;100.00;102086.53;5013423;28;20464;-53
2022/01/23 06:29:07;;;;;;;0.20;0.20;;;;;;;6.03;100.00;102083.00;5008104;28;20519;-52
2022/01/23 06:31:34;;;;;;;0.20;0.20;;;;;;;6.04;100.00;102089.19;5013247;28;20519;-52
2022/01/23 06:34:01;;;;;;;0.20;0.20;;;;;;;6.13;100.00;102094.59;5013102;28;20476;-52
2022/01/23 06:36:28;;;;;;;0.20;0.10;;;;;;;6.07;100.00;102092.75;5013167;28;20950;-53
2022/01/23 06:38:55;;;;;;;0.20;0.20;;;;;;;6.04;100.00;102084.78;5006437;28;20454;-52
2022/01/23 06:41:21;;;;;;;0.20;0.20;;;;;;;6.02;100.00;102086.47;5005100;28;20449;-52
2022/01/23 06:43:48;;;;;;;0.20;0.10;;;;;;;6.03;100.00;102087.38;5012768;28;20542;-52
2022/01/23 06:46:15;;;;;;;0.20;0.20;;;;;;;5.96;100.00;102098.69;5013088;28;20453;-52
2022/01/23 06:48:42;;;;;;;0.30;0.27;;;;;;;5.83;100.00;102090.50;5012309;28;20448;-53
2022/01/23 06:51:09;;;;;;;0.20;0.10;;;;;;;5.90;100.00;102100.34;5012936;28;21033;-52
2022/01/23 06:53:35;;;;;;;0.20;0.20;;;;;;;5.86;100.00;102101.09;5007579;28;20469;-52
2022/01/23 06:56:02;;;;;;;0.20;0.10;;;;;;;6.03;100.00;102101.50;5005109;28;21000;-52
2022/01/23 06:58:29;;;;;;;0.33;0.30;;;;;;;6.06;100.00;102103.28;5008173;28;20516;-52
2022/01/23 07:00:56;;;;;;;1.90;0.90;;;;;;;6.45;100.00;102108.41;5005986;28;20448;-52
2022/01/23 07:03:22;;;;;;;0.20;0.10;;;;;;;6.23;100.00;102105.38;5012824;28;20940;-52
2022/01/23 07:05:49;;;;;;;3.33;1.30;;;;;;;6.41;100.00;102118.00;5012913;28;20452;-52
2022/01/23 07:08:16;;;;;;;0.20;0.20;;;;;;;6.21;100.00;102111.50;5010036;28;20494;-52
2022/01/23 07:10:42;;;;;;;1.03;1.03;;;;;;;6.45;100.00;102114.59;4999511;28;20449;-52
2022/01/23 07:13:09;;;;;;;0.20;0.10;;;;;;;6.73;100.00;102113.31;4998804;28;20456;-52
2022/01/23 07:15:36;;;;;;;0.97;0.87;;;;;;;6.36;100.00;102119.69;4999599;28;20450;-54
2022/01/23 07:18:02;;;;;;;0.20;0.13;;;;;;;6.29;100.00;102125.72;5008965;28;20453;-53
2022/01/23 07:20:29;;;;;;;0.20;0.20;;;;;;;6.24;100.00;102133.56;5006471;28;20448;-54
2022/01/23 07:22:56;;;;;;;0.73;0.53;;;;;;;6.17;100.00;102138.72;4996993;28;20860;-52
2022/01/23 07:25:23;;;;;;;0.20;0.10;;;;;;;6.08;100.00;102136.78;5002983;28;20531;-53
2022/01/23 07:27:53;;;;;;;0.30;0.20;;;;;;;6.02;100.00;102134.00;5000157;28;20456;-53
2022/01/23 07:30:40;;;;;;;0.20;0.10;;;;;;;5.93;100.00;102137.34;5012413;28;20481;-53
2022/01/23 07:33:07;;;;;;;0.20;0.10;;;;;;;6.03;100.00;102145.44;5012549;28;20491;-53
2022/01/23 07:35:34;;;;;;;0.20;0.20;;;;;;;6.04;100.00;102145.50;5012685;28;20874;-53
2022/01/23 07:38:01;;;;;;;0.30;0.20;;;;;;;6.08;100.00;102152.59;5011616;28;20460;-53
2022/01/23 07:40:28;;;;;;;0.20;0.10;;;;;;;6.26;100.00;102156.47;5006464;28;20488;-54
2022/01/23 07:42:55;;;;;;;0.20;0.17;;;;;;;6.19;100.00;102159.00;5003718;28;21015;-54
2022/01/23 07:45:21;;;;;;;0.20;0.20;;;;;;;6.20;100.00;102155.50;5011379;28;20453;-54
2022/01/23 07:47:48;;;;;;;0.20;0.10;;;;;;;6.19;100.00;102163.38;5013580;28;20464;-53
2022/01/23 07:50:16;;;;;;;0.20;0.20;;;;;;;6.10;100.00;102168.47;5013213;28;20885;-54
2022/01/23 07:52:43;;;;;;;0.30;0.20;;;;;;;6.19;100.00;102172.19;5011381;28;20488;-53
2022/01/23 07:55:13;;;;;;;0.60;0.60;;;;;;;6.30;100.00;102166.22;5010888;28;20473;-54
2022/01/23 07:57:42;;;;;;;0.33;0.30;;;;;;;6.44;100.00;102162.06;5006367;28;20449;-53
2022/01/23 08:00:10;;;;;;;0.20;0.13;;;;;;;6.49;100.00;102169.25;4987248;28;20488;-54
2022/01/23 08:02:37;;;;;;;0.20;0.20;;;;;;;6.39;100.00;102163.75;5012675;28;20445;-53
2022/01/23 08:05:05;;;;;;;0.20;0.10;;;;;;;6.60;100.00;102163.28;5001564;28;20477;-54
2022/01/23 08:07:31;;;;;;;4.33;0.90;;;;;;;6.67;100.00;102163.38;5009848;28;20481;-53
2022/01/23 08:10:00;;;;;;;0.30;0.20;;;;;;;6.61;100.00;102162.41;5008663;28;20456;-53
2022/01/23 08:12:28;;;;;;;0.20;0.20;;;;;;;6.61;100.00;102167.69;5016437;28;20866;-53
2022/01/23 08:14:56;;;;;;;1.70;1.13;;;;;;;6.43;100.00;102162.94;5008806;28;20465;-54
2022/01/23 08:17:29;;;;;;;0.30;0.20;;;;;;;6.85;100.00;102160.16;5011149;28;20452;-54
2022/01/23 08:19:58;;;;;;;0.30;0.20;;;;;;;6.46;100.00;102163.03;5006134;28;20448;-54
2022/01/23 08:22:26;;;;;;;0.60;0.60;;;;;;;6.38;100.00;102168.16;5004109;28;20448;-53
2022/01/23 08:24:55;;;;;;;0.20;0.20;;;;;;;6.50;100.00;102170.13;5007294;28;21045;-54
2022/01/23 08:27:23;;;;;;;0.30;0.20;;;;;;;6.45;100.00;102162.13;5011064;28;20457;-54
2022/01/23 08:29:55;;;;;;;2.10;1.27;;;;;;;6.60;100.00;102155.34;5008593;28;20503;-54
2022/01/23 08:32:22;;;;;;;0.20;0.10;;;;;;;6.72;100.00;102171.41;4998105;28;20489;-53
2022/01/23 08:34:49;;;;;;;0.20;0.20;;;;;;;6.60;100.00;102165.91;5007367;28;20538;-52
2022/01/23 08:37:16;;;;;;;1.43;1.07;;;;;;;6.50;100.00;102165.75;5004356;28;20453;-53
2022/01/23 08:39:43;;;;;;;0.30;0.23;;;;;;;6.35;100.00;102172.50;5014781;28;20831;-53
2022/01/23 08:42:17;;;;;;;0.20;0.10;;;;;;;6.60;100.00;102174.72;5013235;28;20506;-53
2022/01/23 08:44:47;;;;;;;0.30;0.30;;;;;;;6.82;100.00;102175.97;5009579;28;20468;-53
2022/01/23 08:47:14;;;;;;;0.20;0.20;;;;;;;6.81;100.00;102175.09;4993862;28;20452;-53
2022/01/23 08:49:48;;;;;;;0.20;0.10;;;;;;;6.62;100.00;102187.97;5001502;28;20484;-53
2022/01/23 08:52:20;;;;;;;1.57;1.47;;;;;;;6.76;100.00;102195.28;5001213;28;20517;-53
2022/01/23 08:54:50;;;;;;;0.30;0.20;;;;;;;7.02;100.00;102178.97;5001645;28;21251;-53
2022/01/23 08:57:18;;;;;;;1.27;1.27;;;;;;;6.78;100.00;102195.28;5007850;28;20460;-53
2022/01/23 08:59:45;;;;;;;0.70;0.50;;;;;;;6.66;100.00;102185.41;5006814;28;20464;-53
2022/01/23 09:02:12;;;;;;;0.57;0.57;;;;;;;6.84;100.00;102182.19;5009403;28;20996;-53
2022/01/23 09:04:39;;;;;;;0.20;0.10;;;;;;;7.10;100.00;102169.38;5009195;28;20917;-53
2022/01/23 09:07:05;;;;;;;0.20;0.20;;;;;;;6.79;100.00;102171.53;4999165;28;20450;-53
2022/01/23 09:09:37;;;;;;;0.20;0.10;;;;;;;6.95;100.00;102162.09;5003233;28;20484;-53
2022/01/23 09:12:23;;;;;;;1.80;1.50;;;;;;;6.96;100.00;102165.63;5003254;28;20489;-53
2022/01/23 09:14:49;;;;;;;0.20;0.13;;;;;;;6.95;100.00;102158.56;4983128;28;20474;-53
2022/01/23 09:17:16;;;;;;;0.20;0.10;;;;;;;6.94;100.00;102162.97;5008717;28;20848;-53
2022/01/23 09:19:46;;;;;;;0.20;0.20;;;;;;;6.76;100.00;102171.50;4997718;28;20950;-52
2022/01/23 09:22:15;;;;;;;0.30;0.10;;;;;;;6.57;100.00;102164.06;4997078;28;20507;-53
2022/01/23 09:24:41;;;;;;;0.20;0.10;;;;;;;6.86;100.00;102169.00;5002154;28;20487;-53
2022/01/23 09:27:17;;;;;;;0.30;0.27;;;;;;;6.56;100.00;102164.94;5007237;28;20573;-53
2022/01/23 09:29:48;;;;;;;0.20;0.10;;;;;;;6.98;100.00;102172.72;5004855;28;20484;-53
2022/01/23 09:32:18;;;;;;;0.20;0.10;;;;;;;6.90;100.00;102169.09;5007998;28;20527;-52
2022/01/23 09:34:45;;;;;;;0.20;0.10;;;;;;;6.87;100.00;102170.78;5005737;28;20488;-53
2022/01/23 09:37:14;;;;;;;0.20;0.10;;;;;;;6.79;100.00;102173.28;5001896;28;20463;-53
2022/01/23 09:39:49;;;;;;;0.20;0.10;;;;;;;6.95;100.00;102171.78;5013158;28;20460;-54
2022/01/23 09:42:51;;;;;;;0.20;0.10;;;;;;;6.85;100.00;102181.31;4996514;28;20834;-53
2022/01/23 09:45:18;;;;;;;0.20;0.10;;;;;;;7.09;100.00;102180.84;5009413;28;20499;-55
2022/01/23 09:47:45;;;;;;;0.20;0.10;;;;;;;7.10;100.00;102185.25;5000450;28;20516;-53
2022/01/23 09:50:13;;;;;;;0.97;0.97;;;;;;;7.07;100.00;102187.84;4999811;28;20942;-53
2022/01/23 09:52:41;;;;;;;0.20;0.10;;;;;;;7.09;100.00;102181.72;5008078;28;20485;-54
2022/01/23 09:55:11;;;;;;;0.20;0.10;;;;;;;7.21;100.00;102182.78;5004178;28;20520;-54
2022/01/23 09:57:43;;;;;;;0.20;0.10;;;;;;;6.95;100.00;102185.00;4997823;28;20521;-54
2022/01/23 10:00:12;;;;;;;0.20;0.10;;;;;;;7.22;100.00;102192.50;4999512;28;20947;-53
2022/01/23 10:02:40;;;;;;;0.20;0.20;;;;;;;7.16;100.00;102182.72;5009208;28;20448;-54
2022/01/23 10:05:08;;;;;;;2.47;2.37;;;;;;;7.21;100.00;102182.78;4996513;28;20555;-54
2022/01/23 10:07:39;;;;;;;0.20;0.10;;;;;;;7.12;100.00;102180.88;5013773;28;20453;-54
2022/01/23 10:10:12;;;;;;;0.20;0.20;;;;;;;7.07;100.00;102179.94;5007149;28;20841;-53
2022/01/23 10:12:45;;;;;;;0.20;0.10;;;;;;;7.18;100.00;102181.00;5013516;28;20897;-54
2022/01/23 10:15:12;;;;;;;0.20;0.20;;;;;;;7.21;100.00;102183.69;5003437;28;20466;-54
2022/01/23 10:17:39;;;;;;;0.20;0.20;;;;;;;7.15;100.00;102180.94;5010800;28;21004;-54
2022/01/23 10:20:08;;;;;;;0.20;0.10;;;;;;;7.10;100.00;102183.50;5013575;28;20485;-54
2022/01/23 10:22:36;;;;;;;0.20;0.10;;;;;;;7.17;100.00;102173.94;5003104;28;20456;-54
2022/01/23 10:25:08;;;;;;;0.20;0.20;;;;;;;7.38;100.00;102171.59;5013176;28;20993;-53
2022/01/23 10:28:06;;;;;;;0.20;0.10;;;;;;;7.41;100.00;102168.13;5013366;28;20894;-54
2022/01/23 10:31:03;;;;;;;0.20;0.20;;;;;;;7.21;100.00;102167.81;5012870;28;20480;-54
2022/01/23 10:33:38;;;;;;;0.57;0.53;;;;;;;7.16;100.00;102173.91;5011598;28;20499;-53
2022/01/23 10:36:07;;;;;;;0.47;0.33;;;;;;;7.38;100.00;102170.69;5013978;28;20862;-54
2022/01/23 10:38:53;;;;;;;0.77;0.77;;;;;;;7.43;100.00;102176.97;4994706;28;20458;-53
2022/01/23 10:47:50;;;;;;;0.20;0.20;;;;;;;7.32;100.00;102176.81;5013122;28;20500;-54
2022/01/23 10:49:58;;;;;;;0.67;0.67;;;;;;;7.14;100.00;102168.59;5002218;28;20461;-53
2022/01/23 10:52:34;;;;;;;0.20;0.20;;;;;;;7.22;100.00;102172.22;5013046;28;20492;-54
2022/01/23 10:55:22;;;;;;;0.30;0.17;;;;;;;7.35;100.00;102179.50;5012706;28;20460;-54
2022/01/23 10:58:01;;;;;;;4.63;0.63;;;;;;;7.39;100.00;102170.72;5013238;28;20852;-54
2022/01/23 11:00:34;;;;;;;0.20;0.20;;;;;;;7.38;100.00;102170.69;5012836;28;20851;-54
2022/01/23 11:03:16;;;;;;;0.30;0.30;;;;;;;7.30;100.00;102177.66;5013077;28;20455;-53
2022/01/23 11:05:44;;;;;;;0.20;0.10;;;;;;;7.38;100.00;102174.25;5012968;28;20448;-54
2022/01/23 11:08:31;;;;;;;0.30;0.20;;;;;;;7.25;100.00;102179.31;4986281;28;20456;-54
2022/01/23 11:11:07;;;;;;;0.20;0.20;;;;;;;7.56;100.00;102165.69;5008802;28;20503;-54
2022/01/23 11:19:35;;;;;;;0.30;0.27;;;;;;;7.70;100.00;102157.94;5012586;28;20882;-54
2022/01/23 11:22:04;;;;;;;0.20;0.10;;;;;;;7.72;100.00;102158.84;5002688;28;20460;-54
2022/01/23 11:24:42;;;;;;;0.30;0.20;;;;;;;7.86;100.00;102153.75;4986698;28;20477;-54
2022/01/23 11:27:08;;;;;;;2.20;2.10;;;;;;;7.96;100.00;102145.94;5012337;28;20449;-54
2022/01/23 11:29:36;;;;;;;0.20;0.20;;;;;;;7.83;100.00;102144.00;5012349;28;20463;-54
2022/01/23 11:32:03;;;;;;;0.30;0.20;;;;;;;7.88;100.00;102141.41;5012588;28;20516;-54
2022/01/23 11:34:32;;;;;;;0.20;0.20;;;;;;;8.13;100.00;102140.81;5012888;28;20479;-54
2022/01/23 11:36:59;;;;;;;0.20;0.20;;;;;;;7.85;98.85;102139.59;5012394;28;20452;-54
2022/01/23 11:39:40;;;;;;;3.40;0.70;;;;;;;7.89;99.78;102136.13;5010485;28;20487;-54
2022/01/23 11:56:25;;;;;;;0.20;0.17;;;;;;;8.20;97.92;102131.16;5016220;28;20526;-54
2022/01/23 11:58:54;;;;;;;0.30;0.20;;;;;;;8.27;96.68;102131.25;4994333;28;20449;-54
2022/01/23 12:01:26;;;;;;;0.20;0.10;;;;;;;8.35;97.76;102133.13;5016198;28;20479;-53
2022/01/23 12:04:33;;;;;;;0.20;0.20;;;;;;;8.38;96.73;102138.47;5016229;28;20464;-54
2022/01/23 12:07:15;;;;;;;0.30;0.20;;;;;;;7.99;97.26;102139.78;4993244;28;20555;-54
2022/01/23 12:10:03;;;;;;;0.80;0.80;;;;;;;8.09;97.51;102138.13;5007403;28;20815;-54
2022/01/23 12:12:41;;;;;;;0.30;0.20;;;;;;;8.07;97.63;102134.56;5015607;28;20519;-54
2022/01/23 12:18:21;;;;;;;0.30;0.20;;;;;;;8.05;98.87;102137.19;4993883;28;20457;-54
2022/01/23 12:20:51;;;;;;;0.30;0.20;;;;;;;7.51;96.68;102129.44;5015474;28;20959;-54
2022/01/23 12:23:18;;;;;;;0.20;0.20;;;;;;;7.53;97.71;102127.69;5005751;28;20496;-54
2022/01/23 12:25:52;;;;;;;0.30;0.20;;;;;;;7.46;94.22;102128.50;5015404;28;20460;-54
2022/01/23 12:28:42;;;;;;;0.20;0.20;;;;;;;7.76;93.15;102125.38;5015737;28;20487;-54
2022/01/23 12:31:12;;;;;;;0.20;0.20;;;;;;;7.70;92.35;102115.59;4974433;28;20441;-54
2022/01/23 12:33:39;;;;;;;0.20;0.20;;;;;;;7.67;92.58;102110.25;5015463;28;20499;-54
2022/01/23 12:36:19;;;;;;;0.20;0.20;;;;;;;7.78;93.19;102108.63;5015494;28;20876;-54
2022/01/23 12:38:48;;;;;;;0.20;0.20;;;;;;;7.71;93.63;102104.13;5013340;28;20510;-54
2022/01/23 12:41:26;;;;;;;0.50;0.50;;;;;;;7.66;93.06;102101.41;5015478;28;20511;-54
2022/01/23 12:44:04;;;;;;;0.20;0.20;;;;;;;7.64;93.08;102096.97;5015320;28;20531;-53
2022/01/23 12:46:33;;;;;;;0.20;0.20;;;;;;;7.90;93.72;102097.28;5015057;28;20448;-54
2022/01/23 12:49:19;;;;;;;0.30;0.20;;;;;;;8.02;94.63;102097.44;5015257;28;21012;-54
2022/01/23 12:51:51;;;;;;;0.30;0.20;;;;;;;7.81;93.60;102094.53;5015238;28;20873;-54
2022/01/23 12:54:26;;;;;;;0.30;0.20;;;;;;;7.82;94.20;102080.44;5014163;28;20500;-54
2022/01/23 12:56:53;;;;;;;0.30;0.20;;;;;;;7.87;94.09;102081.38;5014978;28;20448;-54
2022/01/23 12:59:33;;;;;;;0.23;0.20;;;;;;;7.82;93.47;102084.00;5015292;28;20579;-54
2022/01/23 13:02:06;;;;;;;0.20;0.10;;;;;;;7.66;94.14;102087.28;5014998;28;20452;-54
2022/01/23 13:04:38;;;;;;;0.20;0.20;;;;;;;7.75;94.27;102086.53;4997434;28;20472;-53
2022/01/23 13:07:16;;;;;;;0.53;0.53;;;;;;;7.81;94.45;102082.22;5014975;28;20527;-54
2022/01/23 13:10:06;;;;;;;0.30;0.20;;;;;;;7.81;94.28;102081.28;5005699;28;20449;-54
2022/01/23 13:12:47;;;;;;;0.20;0.20;;;;;;;7.66;94.42;102085.53;5014735;28;20582;-54
2022/01/23 13:32:18;;;;;;;0.20;0.20;;;;;;;7.68;94.04;102085.59;5014330;28;20495;-53
2022/01/23 13:34:58;;;;;;;0.40;0.40;;;;;;;7.66;94.18;102088.19;5014414;28;20542;-54
2022/01/23 13:37:28;;;;;;;11.13;4.33;;;;;;;7.67;94.25;102089.97;5014461;28;20452;-54
2022/01/23 13:40:01;;;;;;;0.30;0.20;;;;;;;7.72;94.90;102082.97;5012979;28;20503;-53
2022/01/23 14:00:06;;;;;;;0.30;0.20;;;;;;;7.75;96.43;102076.81;5007491;28;20518;-53
2022/01/23 14:02:40;;;;;;;0.20;0.10;;;;;;;7.83;96.96;102087.53;5014461;28;20896;-54
2022/01/23 14:05:11;;;;;;;0.23;0.20;;;;;;;7.78;97.90;102092.75;4989791;28;20882;-53
2022/01/23 14:07:40;;;;;;;0.20;0.20;;;;;;;7.71;97.59;102090.91;5008622;28;20471;-53
2022/01/23 14:10:16;;;;;;;0.20;0.20;;;;;;;7.83;97.24;102092.81;4973990;28;20501;-53
2022/01/23 14:12:45;;;;;;;0.30;0.20;;;;;;;7.57;96.78;102090.75;5007657;28;20581;-53
2022/01/23 14:15:22;;;;;;;0.20;0.20;;;;;;;7.54;98.01;102096.00;5002940;28;20540;-53
2022/01/23 14:18:10;;;;;;;0.20;0.10;;;;;;;7.69;97.89;102093.53;5012244;28;20503;-53
2022/01/23 14:20:53;;;;;;;0.30;0.20;;;;;;;7.68;95.64;102090.88;5012765;28;20468;-53
2022/01/23 14:23:20;;;;;;;0.20;0.10;;;;;;;7.79;95.16;102098.91;4994646;28;20470;-53
2022/01/23 14:25:52;;;;;;;2.20;1.27;;;;;;;7.98;96.14;102095.63;5013442;28;20507;-53
2022/01/23 14:28:25;;;;;;;0.30;0.20;;;;;;;8.03;95.16;102091.25;5013512;28;20552;-54
2022/01/23 14:31:00;;;;;;;0.20;0.20;;;;;;;7.65;95.99;102104.03;5013604;28;20515;-54
2022/01/23 14:33:33;;;;;;;0.30;0.20;;;;;;;7.62;96.70;102098.72;5010820;28;20491;-54
2022/01/23 14:36:23;;;;;;;0.20;0.10;;;;;;;7.91;95.75;102093.78;4993532;28;20559;-54
2022/01/23 14:39:11;;;;;;;0.30;0.20;;;;;;;7.58;97.20;102104.84;5011104;28;20445;-53
2022/01/23 14:41:43;;;;;;;0.30;0.20;;;;;;;7.36;98.31;102093.97;5001454;28;20479;-53
2022/01/23 14:44:20;;;;;;;0.20;0.10;;;;;;;7.79;94.57;102086.56;5009892;28;21053;-53
2022/01/23 14:46:50;;;;;;;0.20;0.20;;;;;;;7.48;89.55;102092.38;5010083;28;20452;-53
2022/01/23 14:49:24;;;;;;;0.50;0.50;;;;;;;7.48;92.22;102092.38;5010983;28;20460;-54
2022/01/23 14:51:52;;;;;;;10.10;3.50;;;;;;;7.51;94.79;102092.41;5011504;28;20441;-53
2022/01/23 14:54:21;;;;;;;0.20;0.20;;;;;;;7.43;89.93;102079.97;5013278;28;20492;-53
2022/01/23 14:56:47;;;;;;;0.37;0.37;;;;;;;7.46;91.02;102081.75;4995627;28;20487;-53
2022/01/23 14:59:15;;;;;;;7.80;0.87;;;;;;;7.67;89.19;102087.31;5013192;28;20452;-53
2022/01/23 15:01:44;;;;;;;0.30;0.20;;;;;;;7.78;88.28;102083.91;5004529;28;20452;-53
2022/01/23 15:04:12;;;;;;;0.30;0.20;;;;;;;7.85;87.03;102080.47;5010864;28;20477;-53
2022/01/23 15:06:46;;;;;;;0.20;0.20;;;;;;;7.96;86.92;102082.38;5013225;28;20459;-53
2022/01/23 15:09:15;;;;;;;0.20;0.17;;;;;;;8.15;88.48;102080.81;5004638;28;20445;-53
2022/01/23 15:11:42;;;;;;;1.33;1.17;;;;;;;8.27;86.04;102086.22;5012989;28;20834;-53
2022/01/23 15:14:10;;;;;;;0.30;0.20;;;;;;;8.15;84.64;102078.16;5011301;28;20531;-53
2022/01/23 15:16:38;;;;;;;0.30;0.30;;;;;;;8.12;82.32;102083.44;5001366;28;20449;-53
2022/01/23 15:19:07;;;;;;;0.50;0.50;;;;;;;8.03;82.35;102076.25;5011833;28;20511;-53
2022/01/23 15:21:35;;;;;;;0.30;0.20;;;;;;;8.10;83.66;102074.59;5001925;28;20967;-53
2022/01/23 15:24:02;;;;;;;0.30;0.20;;;;;;;8.11;84.25;102078.13;5009133;28;20519;-53
2022/01/23 15:26:33;;;;;;;0.23;0.20;;;;;;;8.11;83.77;102086.06;4995632;28;20507;-52